Time;durP1;ratioP1;P1;durP2;ratioP2;P2;SDS_P1;SDS_P2;PMS_P1;PMS_P2;Temp;Humidity;BMP_temperature;BMP_pressure;BME280_temperature;BME280_humidity;BME280_pressure;Samples;Min_cycle;Max_cycle;Signal;HPM_P1;HPM_P2
2022/02/16 00:02:25;;;;;;;1.55;1.40;;;;;;;;;;4979309;28;20207;-82
2022/02/16 00:04:52;;;;;;;1.90;1.77;;;;;;;;;;4978365;28;20212;-82
2022/02/16 00:07:20;;;;;;;2.47;2.25;;;;;;;;;;4978009;28;20286;-82
2022/02/16 00:09:47;;;;;;;9.00;1.83;;;;;;;;;;4977976;28;20204;-82
2022/02/16 00:12:14;;;;;;;2.33;1.60;;;;;;;;;;4978012;28;20204;-82
2022/02/16 00:14:41;;;;;;;1.98;1.77;;;;;;;;;;4978466;28;20728;-82
2022/02/16 00:17:10;;;;;;;2.38;1.73;;;;;;;;;;4977505;28;20211;-82
2022/02/16 00:19:38;;;;;;;2.72;1.77;;;;;;;;;;4977995;28;20211;-82
2022/02/16 00:22:05;;;;;;;3.03;1.90;;;;;;;;;;4977808;28;20255;-82
2022/02/16 00:24:34;;;;;;;1.65;1.55;;;;;;;;;;4978987;28;20228;-82
2022/02/16 00:27:01;;;;;;;2.47;2.22;;;;;;;;;;4978867;28;20319;-82
2022/02/16 00:29:29;;;;;;;2.22;2.03;;;;;;;;;;4978467;28;20212;-82
2022/02/16 00:31:56;;;;;;;2.03;1.92;;;;;;;;;;4978464;28;20212;-82
2022/02/16 00:34:24;;;;;;;1.70;1.52;;;;;;;;;;4978026;28;20231;-82
2022/02/16 00:36:52;;;;;;;1.63;1.33;;;;;;;;;;4977195;28;20292;-83
2022/02/16 00:39:19;;;;;;;3.28;1.75;;;;;;;;;;4977908;28;20212;-83
2022/02/16 00:41:46;;;;;;;2.67;2.00;;;;;;;;;;4976735;28;20243;-81
2022/02/16 00:44:14;;;;;;;2.40;1.95;;;;;;;;;;4977220;28;20232;-82
2022/02/16 00:46:41;;;;;;;1.92;1.70;;;;;;;;;;4978234;28;20227;-82
2022/02/16 00:49:08;;;;;;;2.63;2.33;;;;;;;;;;4976970;28;20698;-81
2022/02/16 00:51:38;;;;;;;3.65;2.00;;;;;;;;;;4977783;28;20220;-82
2022/02/16 00:54:05;;;;;;;3.63;1.73;;;;;;;;;;4977722;28;20647;-82
2022/02/16 00:56:32;;;;;;;1.98;1.88;;;;;;;;;;4978093;28;20255;-82
2022/02/16 00:59:00;;;;;;;3.38;1.80;;;;;;;;;;4977385;28;20274;-82
2022/02/16 01:01:27;;;;;;;1.95;1.60;;;;;;;;;;4978387;28;20216;-83
2022/02/16 01:03:54;;;;;;;1.85;1.65;;;;;;;;;;4978000;28;20227;-82
2022/02/16 01:06:21;;;;;;;2.10;1.90;;;;;;;;;;4978052;28;20208;-83
2022/02/16 01:08:50;;;;;;;2.90;2.17;;;;;;;;;;4978389;28;20207;-82
2022/02/16 01:11:17;;;;;;;2.28;1.73;;;;;;;;;;4977404;28;20219;-82
2022/02/16 01:13:45;;;;;;;2.80;2.03;;;;;;;;;;4978304;28;20204;-81
2022/02/16 01:16:12;;;;;;;2.05;1.95;;;;;;;;;;4977284;28;20200;-82
2022/02/16 01:18:39;;;;;;;2.03;1.83;;;;;;;;;;4977600;28;20631;-82
2022/02/16 01:21:07;;;;;;;1.73;1.63;;;;;;;;;;4976481;28;20237;-82
2022/02/16 01:23:35;;;;;;;1.65;1.55;;;;;;;;;;4977336;28;20680;-82
2022/02/16 01:26:03;;;;;;;2.72;1.92;;;;;;;;;;4977681;28;20211;-82
2022/02/16 01:28:31;;;;;;;2.22;2.03;;;;;;;;;;4977889;28;20231;-82
2022/02/16 01:30:58;;;;;;;2.28;2.08;;;;;;;;;;4976879;28;20263;-84
2022/02/16 01:33:25;;;;;;;1.90;1.75;;;;;;;;;;4977530;28;20677;-82
2022/02/16 01:35:52;;;;;;;7.88;2.13;;;;;;;;;;4976562;28;20224;-81
2022/02/16 01:38:20;;;;;;;1.67;1.58;;;;;;;;;;4976514;28;20505;-81
2022/02/16 01:40:47;;;;;;;1.42;1.30;;;;;;;;;;4977385;28;20200;-82
2022/02/16 01:43:17;;;;;;;2.55;2.35;;;;;;;;;;4977638;28;20201;-81
2022/02/16 01:45:45;;;;;;;1.60;1.50;;;;;;;;;;4976747;28;20220;-82
2022/02/16 01:48:12;;;;;;;1.60;1.50;;;;;;;;;;4976763;28;20643;-81
2022/02/16 01:50:39;;;;;;;2.05;1.85;;;;;;;;;;4976517;28;20591;-82
2022/02/16 01:53:06;;;;;;;1.80;1.70;;;;;;;;;;4976814;28;20204;-82
2022/02/16 01:55:34;;;;;;;2.00;1.90;;;;;;;;;;4976784;28;20271;-83
2022/02/16 01:58:03;;;;;;;2.17;1.98;;;;;;;;;;4977429;28;20227;-82
2022/02/16 02:00:33;;;;;;;1.80;1.58;;;;;;;;;;4977949;28;20208;-84
2022/02/16 02:03:00;;;;;;;1.67;1.58;;;;;;;;;;4976663;28;20212;-83
2022/02/16 02:05:28;;;;;;;1.42;1.33;;;;;;;;;;4976768;28;20316;-83
2022/02/16 02:07:55;;;;;;;1.60;1.50;;;;;;;;;;4976451;28;20705;-81
2022/02/16 02:10:22;;;;;;;1.95;1.52;;;;;;;;;;4979088;28;20699;-82
2022/02/16 02:12:52;;;;;;;2.45;1.50;;;;;;;;;;4981214;28;20209;-80
2022/02/16 02:15:23;;;;;;;1.50;1.40;;;;;;;;;;4981776;28;20227;-82
2022/02/16 02:17:52;;;;;;;1.70;1.60;;;;;;;;;;4981527;28;20214;-82
2022/02/16 02:20:22;;;;;;;2.13;1.70;;;;;;;;;;4982001;28;20204;-82
2022/02/16 02:22:50;;;;;;;2.42;1.83;;;;;;;;;;4981863;28;20211;-82
2022/02/16 02:25:18;;;;;;;2.80;2.22;;;;;;;;;;4981773;28;20220;-82
2022/02/16 02:27:45;;;;;;;2.05;1.52;;;;;;;;;;4981185;28;20224;-82
2022/02/16 02:30:14;;;;;;;3.25;2.15;;;;;;;;;;4980904;28;20735;-83
2022/02/16 02:32:42;;;;;;;1.50;1.40;;;;;;;;;;4981568;28;20208;-83
2022/02/16 02:35:11;;;;;;;1.83;1.73;;;;;;;;;;4981539;28;20231;-81
2022/02/16 02:37:40;;;;;;;3.15;2.50;;;;;;;;;;4982056;28;20296;-81
2022/02/16 02:40:09;;;;;;;1.65;1.40;;;;;;;;;;4980639;28;20566;-81
2022/02/16 02:42:37;;;;;;;1.70;1.58;;;;;;;;;;4981100;28;20211;-83
2022/02/16 02:45:07;;;;;;;1.73;1.42;;;;;;;;;;4980704;28;20224;-81
2022/02/16 02:47:34;;;;;;;1.50;1.40;;;;;;;;;;4981988;28;20588;-82
2022/02/16 02:50:02;;;;;;;1.70;1.52;;;;;;;;;;4985240;28;20204;-82
2022/02/16 02:52:30;;;;;;;2.28;2.15;;;;;;;;;;4985574;28;20200;-82
2022/02/16 02:54:59;;;;;;;1.70;1.60;;;;;;;;;;5020477;22;20616;-80
2022/02/16 02:57:27;;;;;;;2.10;1.85;;;;;;;;;;5016252;28;20207;-80
2022/02/16 02:59:54;;;;;;;2.45;1.80;;;;;;;;;;5015891;28;20207;-80
2022/02/16 03:02:23;;;;;;;2.58;2.35;;;;;;;;;;5008399;28;20210;-81
2022/02/16 03:04:50;;;;;;;2.25;1.67;;;;;;;;;;5016933;28;20703;-81
2022/02/16 03:07:18;;;;;;;1.67;1.58;;;;;;;;;;5017022;28;20569;-80
2022/02/16 03:09:45;;;;;;;1.60;1.50;;;;;;;;;;5000032;28;20224;-79
2022/02/16 03:12:14;;;;;;;4.03;1.60;;;;;;;;;;5004283;28;20204;-80
2022/02/16 03:14:42;;;;;;;2.00;1.23;;;;;;;;;;4977817;28;20220;-80
2022/02/16 03:17:09;;;;;;;1.58;1.48;;;;;;;;;;4978159;28;20251;-80
2022/02/16 03:19:36;;;;;;;3.13;2.47;;;;;;;;;;4977655;28;20212;-80
2022/02/16 03:22:04;;;;;;;3.08;1.67;;;;;;;;;;4977996;28;20208;-80
2022/02/16 03:24:31;;;;;;;1.15;1.15;;;;;;;;;;4977951;28;20243;-80
2022/02/16 03:26:59;;;;;;;2.03;1.90;;;;;;;;;;4977706;28;20204;-80
2022/02/16 03:29:27;;;;;;;1.80;1.70;;;;;;;;;;4977738;28;20227;-80
2022/02/16 03:31:54;;;;;;;1.67;1.55;;;;;;;;;;4978251;28;20205;-80
2022/02/16 03:34:22;;;;;;;2.15;1.75;;;;;;;;;;4978038;28;20235;-80
2022/02/16 03:36:49;;;;;;;1.70;1.23;;;;;;;;;;4979535;28;20209;-79
2022/02/16 03:39:16;;;;;;;1.85;1.75;;;;;;;;;;4986181;28;20200;-80
2022/02/16 03:41:44;;;;;;;2.47;1.80;;;;;;;;;;4982286;28;20639;-80
2022/02/16 03:44:12;;;;;;;1.13;1.13;;;;;;;;;;4977885;28;20258;-79
2022/02/16 03:46:40;;;;;;;1.50;1.40;;;;;;;;;;4977627;28;20215;-80
2022/02/16 03:49:07;;;;;;;1.35;1.30;;;;;;;;;;4976728;28;20275;-80
2022/02/16 03:51:35;;;;;;;1.27;1.20;;;;;;;;;;4976790;28;20200;-78
2022/02/16 03:54:02;;;;;;;3.20;1.65;;;;;;;;;;4976658;28;20219;-80
2022/02/16 03:56:29;;;;;;;2.28;1.50;;;;;;;;;;4976928;28;20216;-80
2022/02/16 03:58:57;;;;;;;1.48;1.23;;;;;;;;;;4975955;28;20200;-80
2022/02/16 04:01:24;;;;;;;1.17;1.08;;;;;;;;;;4976055;28;20211;-80
2022/02/16 04:03:53;;;;;;;1.00;1.00;;;;;;;;;;4976565;28;20243;-79
2022/02/16 04:06:20;;;;;;;1.52;1.42;;;;;;;;;;4976689;28;20215;-79
2022/02/16 04:08:47;;;;;;;1.65;1.55;;;;;;;;;;4976610;28;20641;-80
2022/02/16 04:11:15;;;;;;;2.05;1.52;;;;;;;;;;4992492;28;20208;-80
2022/02/16 04:13:42;;;;;;;1.42;1.33;;;;;;;;;;4995230;28;20207;-80
2022/02/16 04:16:09;;;;;;;3.58;2.08;;;;;;;;;;4995795;28;20239;-80
2022/02/16 04:18:36;;;;;;;1.60;1.50;;;;;;;;;;4996064;28;20639;-80
2022/02/16 04:21:05;;;;;;;1.77;1.45;;;;;;;;;;4995776;28;20734;-80
2022/02/16 04:23:32;;;;;;;1.95;1.85;;;;;;;;;;4995656;28;20250;-80
2022/02/16 04:25:59;;;;;;;1.23;1.13;;;;;;;;;;4995400;28;20277;-79
2022/02/16 04:28:27;;;;;;;1.40;1.30;;;;;;;;;;4995737;28;20204;-80
2022/02/16 04:30:54;;;;;;;1.40;1.30;;;;;;;;;;4995674;28;20199;-79
2022/02/16 04:33:22;;;;;;;1.40;1.30;;;;;;;;;;4994202;28;20234;-81
2022/02/16 04:35:49;;;;;;;1.38;1.30;;;;;;;;;;4995994;28;20620;-80
2022/02/16 04:38:18;;;;;;;1.35;1.25;;;;;;;;;;4995289;28;20211;-80
2022/02/16 04:40:45;;;;;;;1.23;1.13;;;;;;;;;;4994872;28;20250;-79
2022/02/16 04:43:13;;;;;;;1.58;1.38;;;;;;;;;;4994784;28;20212;-81
2022/02/16 04:45:40;;;;;;;1.23;1.17;;;;;;;;;;4995008;28;20227;-80
2022/02/16 04:48:07;;;;;;;1.48;1.38;;;;;;;;;;4995635;28;20203;-80
2022/02/16 04:50:35;;;;;;;1.23;1.20;;;;;;;;;;4994724;28;20711;-80
2022/02/16 04:53:02;;;;;;;1.70;1.60;;;;;;;;;;4994790;28;20207;-80
2022/02/16 04:55:30;;;;;;;1.42;1.33;;;;;;;;;;4995134;28;20281;-80
2022/02/16 04:57:58;;;;;;;1.77;1.45;;;;;;;;;;4994853;28;20214;-80
2022/02/16 05:00:25;;;;;;;1.42;1.33;;;;;;;;;;4995359;28;20207;-80
2022/02/16 05:02:53;;;;;;;1.65;1.10;;;;;;;;;;4994831;28;20204;-81
2022/02/16 05:05:20;;;;;;;1.40;1.30;;;;;;;;;;4994885;28;20740;-81
2022/02/16 05:07:47;;;;;;;1.58;1.48;;;;;;;;;;4995592;28;20211;-80
2022/02/16 05:10:14;;;;;;;1.52;1.42;;;;;;;;;;4995088;28;20235;-81
2022/02/16 05:12:43;;;;;;;1.27;1.17;;;;;;;;;;4995281;28;20211;-80
2022/02/16 05:15:11;;;;;;;1.00;1.00;;;;;;;;;;4995048;28;20232;-81
2022/02/16 05:17:38;;;;;;;1.70;1.60;;;;;;;;;;4994808;28;20215;-79
2022/02/16 05:20:07;;;;;;;1.48;1.38;;;;;;;;;;4995094;28;20608;-81
2022/02/16 05:22:35;;;;;;;1.30;1.20;;;;;;;;;;4995048;28;20199;-81
2022/02/16 05:25:03;;;;;;;1.35;1.25;;;;;;;;;;4995126;28;20315;-81
2022/02/16 05:27:30;;;;;;;1.45;1.35;;;;;;;;;;4994940;28;20231;-81
2022/02/16 05:29:58;;;;;;;1.58;1.40;;;;;;;;;;4995145;28;20228;-80
2022/02/16 05:32:26;;;;;;;1.67;1.30;;;;;;;;;;4995035;28;20579;-81
2022/02/16 05:34:53;;;;;;;1.63;1.52;;;;;;;;;;4994661;28;20250;-81
2022/02/16 05:37:20;;;;;;;2.20;1.60;;;;;;;;;;4994360;28;20234;-80
2022/02/16 05:39:48;;;;;;;1.83;1.70;;;;;;;;;;4995071;28;20211;-81
2022/02/16 05:42:15;;;;;;;1.73;1.63;;;;;;;;;;4995086;28;20208;-81
2022/02/16 05:44:42;;;;;;;2.53;1.60;;;;;;;;;;4996757;28;20228;-79
2022/02/16 05:47:11;;;;;;;1.73;1.63;;;;;;;;;;5001961;28;20214;-85
2022/02/16 05:49:38;;;;;;;2.22;1.67;;;;;;;;;;5006328;28;20223;-85
2022/02/16 05:52:06;;;;;;;1.52;1.45;;;;;;;;;;5006864;28;20211;-84
2022/02/16 05:54:34;;;;;;;3.28;2.45;;;;;;;;;;5006755;28;20624;-85
2022/02/16 05:57:01;;;;;;;2.45;1.67;;;;;;;;;;5005535;28;20302;-85
2022/02/16 05:59:29;;;;;;;1.88;1.45;;;;;;;;;;5006268;28;20222;-84
2022/02/16 06:02:00;;;;;;;1.52;1.42;;;;;;;;;;5004200;28;20290;-86
2022/02/16 06:04:28;;;;;;;1.67;1.58;;;;;;;;;;5006116;28;20227;-85
2022/02/16 06:06:56;;;;;;;1.52;1.42;;;;;;;;;;5006456;28;20204;-84
2022/02/16 06:09:23;;;;;;;1.30;1.30;;;;;;;;;;5004785;28;20223;-84
2022/02/16 06:11:50;;;;;;;1.50;1.40;;;;;;;;;;5004732;28;20200;-85
2022/02/16 06:14:17;;;;;;;1.45;1.27;;;;;;;;;;5004266;28;20226;-85
2022/02/16 06:16:45;;;;;;;1.90;1.80;;;;;;;;;;5004072;28;20207;-86
2022/02/16 06:19:13;;;;;;;1.60;1.50;;;;;;;;;;5003797;28;20215;-84
2022/02/16 06:21:41;;;;;;;1.70;1.58;;;;;;;;;;5005827;28;20204;-86
2022/02/16 06:24:09;;;;;;;3.20;1.60;;;;;;;;;;5005165;28;20218;-85
2022/02/16 06:26:36;;;;;;;1.60;1.50;;;;;;;;;;5004978;28;20214;-85
2022/02/16 06:29:04;;;;;;;2.42;2.20;;;;;;;;;;5005046;28;20254;-84
2022/02/16 06:31:31;;;;;;;1.70;1.60;;;;;;;;;;5005342;28;20247;-85
2022/02/16 06:33:58;;;;;;;2.47;1.58;;;;;;;;;;5004832;28;20258;-84
2022/02/16 06:36:26;;;;;;;1.50;1.40;;;;;;;;;;5004512;28;20226;-83
2022/02/16 06:38:54;;;;;;;1.50;1.40;;;;;;;;;;5005361;28;20207;-85
2022/02/16 06:41:22;;;;;;;1.67;1.58;;;;;;;;;;5005286;28;20200;-84
2022/02/16 06:43:49;;;;;;;1.60;1.50;;;;;;;;;;5005631;28;20215;-85
2022/02/16 06:46:16;;;;;;;1.40;1.30;;;;;;;;;;5006162;28;20223;-85
2022/02/16 06:48:44;;;;;;;1.63;1.40;;;;;;;;;;5005735;28;20711;-84
2022/02/16 06:51:11;;;;;;;1.80;1.70;;;;;;;;;;5005569;28;20599;-86
2022/02/16 06:53:39;;;;;;;1.40;1.30;;;;;;;;;;5005423;28;20215;-84
2022/02/16 06:56:07;;;;;;;1.70;1.60;;;;;;;;;;5004326;28;20259;-86
2022/02/16 06:58:35;;;;;;;1.40;1.30;;;;;;;;;;5004655;28;20216;-86
2022/02/16 07:01:02;;;;;;;1.58;1.48;;;;;;;;;;5004937;28;20210;-84
2022/02/16 07:03:29;;;;;;;1.67;1.58;;;;;;;;;;5004612;28;20579;-85
2022/02/16 07:05:57;;;;;;;1.70;1.60;;;;;;;;;;5004327;28;20704;-84
2022/02/16 07:08:25;;;;;;;1.63;1.52;;;;;;;;;;5004016;28;20207;-84
2022/02/16 07:10:52;;;;;;;2.03;1.83;;;;;;;;;;5004618;28;20238;-85
2022/02/16 07:13:21;;;;;;;2.30;1.50;;;;;;;;;;5004160;28;20196;-84
2022/02/16 07:15:49;;;;;;;1.85;1.75;;;;;;;;;;5004318;28;20715;-84
2022/02/16 07:18:16;;;;;;;1.70;1.40;;;;;;;;;;5003866;28;20239;-85
2022/02/16 07:20:43;;;;;;;2.45;1.50;;;;;;;;;;5003467;28;20207;-85
2022/02/16 07:23:10;;;;;;;1.65;1.55;;;;;;;;;;5004778;28;20210;-85
2022/02/16 07:25:38;;;;;;;1.60;1.50;;;;;;;;;;5004029;28;20224;-85
2022/02/16 07:28:06;;;;;;;1.20;1.20;;;;;;;;;;5003749;28;20645;-85
2022/02/16 07:30:35;;;;;;;1.63;1.52;;;;;;;;;;5003872;28;20286;-84
2022/02/16 07:33:03;;;;;;;1.60;1.50;;;;;;;;;;5002901;28;20267;-85
2022/02/16 07:35:30;;;;;;;1.98;1.52;;;;;;;;;;5002646;28;20216;-85
2022/02/16 07:37:57;;;;;;;1.50;1.40;;;;;;;;;;5002809;28;20200;-85
2022/02/16 07:40:25;;;;;;;1.75;1.52;;;;;;;;;;5003189;28;20212;-84
2022/02/16 07:42:52;;;;;;;1.50;1.40;;;;;;;;;;5003020;28;20200;-84
2022/02/16 07:45:20;;;;;;;1.55;1.45;;;;;;;;;;5002290;28;20257;-85
2022/02/16 07:47:49;;;;;;;1.40;1.30;;;;;;;;;;5002951;28;20568;-85
2022/02/16 07:50:16;;;;;;;1.90;1.80;;;;;;;;;;5003966;28;20230;-86
2022/02/16 07:52:45;;;;;;;1.60;1.50;;;;;;;;;;5002656;28;20219;-85
2022/02/16 07:55:12;;;;;;;1.52;1.42;;;;;;;;;;5002986;28;20232;-85
2022/02/16 07:57:40;;;;;;;2.05;1.27;;;;;;;;;;5002626;28;20212;-86
2022/02/16 08:00:09;;;;;;;1.40;1.30;;;;;;;;;;5002608;28;20212;-85
2022/02/16 08:02:36;;;;;;;1.65;1.55;;;;;;;;;;5002663;28;20307;-86
2022/02/16 08:05:05;;;;;;;1.20;1.20;;;;;;;;;;5000951;28;20224;-86
2022/02/16 08:07:32;;;;;;;1.90;1.80;;;;;;;;;;5000544;28;20206;-84
2022/02/16 08:10:00;;;;;;;1.80;1.70;;;;;;;;;;5001997;28;20258;-85
2022/02/16 08:12:27;;;;;;;1.50;1.40;;;;;;;;;;5002788;28;20216;-87
2022/02/16 08:14:55;;;;;;;1.13;1.02;;;;;;;;;;5004382;28;20228;-84
2022/02/16 08:17:23;;;;;;;1.45;1.30;;;;;;;;;;5004412;28;20207;-86
2022/02/16 08:19:50;;;;;;;1.50;1.40;;;;;;;;;;5003152;28;20196;-85
2022/02/16 08:22:19;;;;;;;1.27;1.27;;;;;;;;;;5003223;28;20206;-86
2022/02/16 08:24:46;;;;;;;1.30;1.20;;;;;;;;;;5003772;28;20711;-85
2022/02/16 08:27:14;;;;;;;1.42;1.38;;;;;;;;;;5004033;28;20407;-86
2022/02/16 08:29:41;;;;;;;1.42;1.33;;;;;;;;;;5004162;28;20215;-86
2022/02/16 08:32:09;;;;;;;1.10;1.10;;;;;;;;;;5003632;28;20222;-84
2022/02/16 08:34:36;;;;;;;1.00;1.00;;;;;;;;;;5004567;28;20762;-85
2022/02/16 08:37:03;;;;;;;1.27;1.17;;;;;;;;;;5003900;28;20211;-86
2022/02/16 08:39:32;;;;;;;1.67;1.58;;;;;;;;;;5003670;28;20208;-85
2022/02/16 08:41:59;;;;;;;1.17;1.17;;;;;;;;;;5003824;28;20683;-85
2022/02/16 08:44:27;;;;;;;1.58;1.48;;;;;;;;;;5003957;28;20608;-86
2022/02/16 08:46:54;;;;;;;1.13;1.13;;;;;;;;;;5003744;28;20218;-86
2022/02/16 08:49:22;;;;;;;1.73;1.63;;;;;;;;;;5003709;28;20203;-84
2022/02/16 08:51:49;;;;;;;1.20;1.20;;;;;;;;;;5003358;28;20267;-87
2022/02/16 08:57:00;;;;;;;1.20;1.20;;;;;;;;;;5100408;28;20564;-84
2022/02/16 08:59:27;;;;;;;1.52;1.27;;;;;;;;;;5101559;28;20196;-85
2022/02/16 09:01:54;;;;;;;1.27;1.20;;;;;;;;;;5104560;28;20236;-84
2022/02/16 09:04:22;;;;;;;1.00;1.00;;;;;;;;;;5105316;28;20212;-84
2022/02/16 09:09:32;;;;;;;1.10;1.10;;;;;;;;;;5095153;28;20196;-85
2022/02/16 09:12:01;;;;;;;1.25;1.20;;;;;;;;;;5096704;28;20204;-84
2022/02/16 09:14:29;;;;;;;1.20;1.20;;;;;;;;;;5102042;28;20199;-85
2022/02/16 09:16:56;;;;;;;1.25;0.90;;;;;;;;;;5102282;28;20220;-85
2022/02/16 09:19:24;;;;;;;1.55;1.45;;;;;;;;;;5100683;28;20196;-84
2022/02/16 09:21:52;;;;;;;1.17;1.10;;;;;;;;;;5104585;28;20216;-85
2022/02/16 09:24:19;;;;;;;1.73;1.20;;;;;;;;;;5102960;28;20413;-86
2022/02/16 09:26:50;;;;;;;0.90;0.90;;;;;;;;;;5101337;28;20211;-85
2022/02/16 09:29:18;;;;;;;0.80;0.80;;;;;;;;;;5101076;28;20193;-85
2022/02/16 09:31:46;;;;;;;0.85;0.85;;;;;;;;;;5104247;28;20196;-84
2022/02/16 09:34:13;;;;;;;1.00;1.00;;;;;;;;;;5102983;28;20200;-85
2022/02/16 09:36:40;;;;;;;1.05;1.05;;;;;;;;;;5103498;28;20228;-84
2022/02/16 09:39:08;;;;;;;0.90;0.90;;;;;;;;;;5103607;28;20222;-84
2022/02/16 09:41:35;;;;;;;0.88;0.88;;;;;;;;;;5084798;28;20672;-83
2022/02/16 09:44:03;;;;;;;0.80;0.80;;;;;;;;;;5082623;28;20205;-84
2022/02/16 09:46:32;;;;;;;0.90;0.90;;;;;;;;;;5082070;28;20217;-85
2022/02/16 09:48:59;;;;;;;0.70;0.70;;;;;;;;;;5081326;28;20197;-85
2022/02/16 09:51:27;;;;;;;1.10;1.10;;;;;;;;;;5079737;28;20204;-84
2022/02/16 09:53:54;;;;;;;0.75;0.75;;;;;;;;;;5079127;28;20239;-85
2022/02/16 09:56:22;;;;;;;0.70;0.70;;;;;;;;;;5079207;28;20232;-85
2022/02/16 09:58:50;;;;;;;0.95;0.93;;;;;;;;;;5078275;28;20618;-86
2022/02/16 10:01:17;;;;;;;1.10;1.00;;;;;;;;;;5076500;28;20201;-86
2022/02/16 10:04:02;;;;;;;0.85;0.85;;;;;;;;;;5077012;28;20208;-85
2022/02/16 10:06:38;;;;;;;0.60;0.60;;;;;;;;;;5075938;28;20225;-85
2022/02/16 10:09:07;;;;;;;0.60;0.60;;;;;;;;;;5065656;28;20696;-85
2022/02/16 10:11:35;;;;;;;0.60;0.60;;;;;;;;;;5065379;28;20206;-86
2022/02/16 10:14:20;;;;;;;0.60;0.60;;;;;;;;;;5065441;28;20197;-85
2022/02/16 10:16:49;;;;;;;0.65;0.65;;;;;;;;;;5064104;28;20221;-86
2022/02/16 10:19:18;;;;;;;0.60;0.60;;;;;;;;;;5063512;28;20206;-85
2022/02/16 10:22:05;;;;;;;0.80;0.80;;;;;;;;;;5064385;28;20193;-86
2022/02/16 10:24:34;;;;;;;0.68;0.68;;;;;;;;;;5066785;28;20205;-84
2022/02/16 10:27:02;;;;;;;0.60;0.60;;;;;;;;;;5065736;28;20666;-85
2022/02/16 10:29:32;;;;;;;0.70;0.70;;;;;;;;;;5065829;28;20557;-85
2022/02/16 10:32:01;;;;;;;0.65;0.65;;;;;;;;;;5066535;28;20198;-84
2022/02/16 10:34:51;;;;;;;0.60;0.60;;;;;;;;;;5067473;28;20198;-87
2022/02/16 10:37:22;;;;;;;0.68;0.68;;;;;;;;;;5065784;28;20229;-86
2022/02/16 10:40:11;;;;;;;0.60;0.60;;;;;;;;;;5065848;28;20202;-85
2022/02/16 10:42:41;;;;;;;0.70;0.70;;;;;;;;;;5064378;28;20201;-86
2022/02/16 10:45:11;;;;;;;0.60;0.60;;;;;;;;;;5065003;28;20221;-86
2022/02/16 10:47:54;;;;;;;0.55;0.55;;;;;;;;;;5064960;28;20201;-86
2022/02/16 10:50:25;;;;;;;0.50;0.50;;;;;;;;;;5067018;28;20206;-85
2022/02/16 10:52:56;;;;;;;0.60;0.60;;;;;;;;;;5067104;28;20594;-85
2022/02/16 10:55:44;;;;;;;0.43;0.43;;;;;;;;;;5065883;28;20256;-85
2022/02/16 10:58:14;;;;;;;0.57;0.57;;;;;;;;;;5065305;28;20222;-85
2022/02/16 11:00:46;;;;;;;0.63;0.63;;;;;;;;;;5065078;28;20205;-85
2022/02/16 11:03:24;;;;;;;0.70;0.70;;;;;;;;;;5064939;28;20201;-84
2022/02/16 11:05:55;;;;;;;0.47;0.47;;;;;;;;;;5064927;28;20221;-84
2022/02/16 11:08:25;;;;;;;0.50;0.50;;;;;;;;;;5064953;28;20212;-86
2022/02/16 11:10:53;;;;;;;0.47;0.47;;;;;;;;;;5066535;28;20213;-85
2022/02/16 11:13:25;;;;;;;0.43;0.43;;;;;;;;;;5065855;28;20206;-84
2022/02/16 11:15:53;;;;;;;0.40;0.40;;;;;;;;;;5064384;28;20236;-86
2022/02/16 11:18:26;;;;;;;0.40;0.40;;;;;;;;;;5063817;28;20558;-85
2022/02/16 11:21:09;;;;;;;0.60;0.50;;;;;;;;;;5064345;28;20205;-86
2022/02/16 11:23:39;;;;;;;0.50;0.50;;;;;;;;;;5065020;28;20197;-84
2022/02/16 11:26:35;;;;;;;0.50;0.50;;;;;;;;;;5063494;28;20226;-86
2022/02/16 11:29:08;;;;;;;0.50;0.50;;;;;;;;;;5065935;28;20202;-84
2022/02/16 11:31:37;;;;;;;0.57;0.57;;;;;;;;;;5065675;28;20253;-84
2022/02/16 11:34:20;;;;;;;0.30;0.30;;;;;;;;;;5064226;28;20213;-84
2022/02/16 11:36:52;;;;;;;0.52;0.43;;;;;;;;;;5064441;28;20636;-85
2022/02/16 11:40:02;;;;;;;0.50;0.50;;;;;;;;;;5063357;28;20202;-84
2022/02/16 11:42:55;;;;;;;0.40;0.40;;;;;;;;;;5061324;28;20205;-85
2022/02/16 11:45:45;;;;;;;0.70;0.70;;;;;;;;;;5058582;28;20231;-86
2022/02/16 11:48:14;;;;;;;0.50;0.50;;;;;;;;;;5058885;28;20712;-84
2022/02/16 11:50:43;;;;;;;0.40;0.40;;;;;;;;;;5065283;28;20202;-84
2022/02/16 11:53:14;;;;;;;0.40;0.40;;;;;;;;;;5062948;28;20210;-86
2022/02/16 11:55:44;;;;;;;0.40;0.40;;;;;;;;;;5062285;28;20229;-85
2022/02/16 11:58:21;;;;;;;0.60;0.50;;;;;;;;;;5063231;28;20313;-86
2022/02/16 12:01:05;;;;;;;0.50;0.50;;;;;;;;;;5062957;28;20270;-85
2022/02/16 12:03:35;;;;;;;0.30;0.30;;;;;;;;;;5064154;28;20208;-85
2022/02/16 12:06:08;;;;;;;0.47;0.47;;;;;;;;;;5064484;28;20244;-85
2022/02/16 12:08:42;;;;;;;0.60;0.60;;;;;;;;;;5063306;28;20255;-85
2022/02/16 12:11:23;;;;;;;0.70;0.70;;;;;;;;;;5063945;28;20198;-84
2022/02/16 12:13:54;;;;;;;0.45;0.45;;;;;;;;;;5064046;28;20265;-85
2022/02/16 12:16:25;;;;;;;0.85;0.60;;;;;;;;;;5063690;28;20733;-84
2022/02/16 12:18:52;;;;;;;0.57;0.57;;;;;;;;;;5064300;28;20197;-85
2022/02/16 12:21:26;;;;;;;0.50;0.50;;;;;;;;;;5064168;28;20217;-84
2022/02/16 12:24:01;;;;;;;0.40;0.40;;;;;;;;;;5062503;28;20708;-85
2022/02/16 12:26:36;;;;;;;0.40;0.40;;;;;;;;;;5063557;28;20260;-85
2022/02/16 12:29:10;;;;;;;0.57;0.57;;;;;;;;;;5063976;28;20264;-83
2022/02/16 12:31:40;;;;;;;0.60;0.60;;;;;;;;;;5063560;28;20581;-84
2022/02/16 12:34:10;;;;;;;0.40;0.40;;;;;;;;;;5063836;28;20763;-86
2022/02/16 12:36:41;;;;;;;0.30;0.30;;;;;;;;;;5062745;28;20252;-85
2022/02/16 12:39:11;;;;;;;0.47;0.47;;;;;;;;;;5063588;28;20208;-86
2022/02/16 12:41:40;;;;;;;0.25;0.25;;;;;;;;;;5064223;28;20202;-85
2022/02/16 12:44:09;;;;;;;0.30;0.30;;;;;;;;;;5064405;28;20202;-85
2022/02/16 12:46:38;;;;;;;0.77;0.50;;;;;;;;;;5064402;28;20217;-84
2022/02/16 12:49:06;;;;;;;0.50;0.50;;;;;;;;;;5065183;28;20259;-84
2022/02/16 12:51:35;;;;;;;0.38;0.38;;;;;;;;;;5064293;28;20213;-85
2022/02/16 12:54:07;;;;;;;0.47;0.47;;;;;;;;;;5063804;28;20198;-85
2022/02/16 12:56:38;;;;;;;0.32;0.32;;;;;;;;;;5063591;28;20260;-85
2022/02/16 12:59:17;;;;;;;0.43;0.43;;;;;;;;;;5062999;28;20232;-85
2022/02/16 13:01:45;;;;;;;0.40;0.40;;;;;;;;;;5064933;28;20201;-85
2022/02/16 13:04:13;;;;;;;0.30;0.30;;;;;;;;;;5063780;28;20230;-86
2022/02/16 13:06:45;;;;;;;0.70;0.70;;;;;;;;;;5064260;28;20232;-85
2022/02/16 13:09:14;;;;;;;0.60;0.60;;;;;;;;;;5064632;28;20198;-85
2022/02/16 13:11:51;;;;;;;0.45;0.45;;;;;;;;;;5065304;28;20215;-84
2022/02/16 13:14:21;;;;;;;0.32;0.32;;;;;;;;;;5065937;28;20205;-85
2022/02/16 13:16:58;;;;;;;0.30;0.30;;;;;;;;;;5065017;28;20645;-84
2022/02/16 13:19:52;;;;;;;0.50;0.50;;;;;;;;;;5065478;28;20225;-84
2022/02/16 13:22:25;;;;;;;0.40;0.40;;;;;;;;;;5063899;28;20221;-85
2022/02/16 13:24:58;;;;;;;0.50;0.50;;;;;;;;;;5064903;28;20231;-84
2022/02/16 13:27:46;;;;;;;0.50;0.50;;;;;;;;;;5064894;28;20197;-84
2022/02/16 13:30:17;;;;;;;0.50;0.50;;;;;;;;;;5063351;28;20198;-85
2022/02/16 13:32:46;;;;;;;0.35;0.35;;;;;;;;;;5064763;28;20270;-84
2022/02/16 13:35:17;;;;;;;0.35;0.35;;;;;;;;;;5064566;28;20225;-85
2022/02/16 13:37:59;;;;;;;0.50;0.50;;;;;;;;;;5064445;28;20222;-84
2022/02/16 13:40:27;;;;;;;0.47;0.47;;;;;;;;;;5064412;28;20205;-84
2022/02/16 13:43:03;;;;;;;0.40;0.40;;;;;;;;;;5066868;28;20614;-85
2022/02/16 13:45:33;;;;;;;0.30;0.30;;;;;;;;;;5067805;28;20229;-85
2022/02/16 13:48:02;;;;;;;0.40;0.40;;;;;;;;;;5068781;28;20201;-85
2022/02/16 13:50:33;;;;;;;0.55;0.55;;;;;;;;;;5068142;28;20205;-84
2022/02/16 13:53:01;;;;;;;0.40;0.40;;;;;;;;;;5067552;28;20202;-84
2022/02/16 13:55:55;;;;;;;0.35;0.35;;;;;;;;;;5068384;28;20256;-84
2022/02/16 13:58:29;;;;;;;0.52;0.52;;;;;;;;;;5067546;28;20229;-85
2022/02/16 14:01:06;;;;;;;0.35;0.35;;;;;;;;;;5067628;28;20689;-85
2022/02/16 14:03:35;;;;;;;0.30;0.30;;;;;;;;;;5067063;28;20205;-84
2022/02/16 14:06:02;;;;;;;0.40;0.40;;;;;;;;;;5068227;28;20217;-84
2022/02/16 14:08:29;;;;;;;0.32;0.32;;;;;;;;;;5067824;28;20193;-84
2022/02/16 14:10:57;;;;;;;0.40;0.40;;;;;;;;;;5068022;28;20209;-84
2022/02/16 14:13:26;;;;;;;0.40;0.40;;;;;;;;;;5067101;28;20280;-84
2022/02/16 14:15:53;;;;;;;0.30;0.30;;;;;;;;;;5068033;28;20222;-84
2022/02/16 14:18:21;;;;;;;0.55;0.55;;;;;;;;;;5066851;28;20217;-84
2022/02/16 14:20:48;;;;;;;0.57;0.57;;;;;;;;;;5068123;28;20216;-84
2022/02/16 14:23:15;;;;;;;0.40;0.40;;;;;;;;;;5068947;28;20217;-85
2022/02/16 14:25:43;;;;;;;0.38;0.38;;;;;;;;;;5068689;28;20218;-84
2022/02/16 14:28:10;;;;;;;0.38;0.38;;;;;;;;;;5066600;28;20197;-84
2022/02/16 14:30:39;;;;;;;0.40;0.40;;;;;;;;;;5067267;28;20205;-84
2022/02/16 14:33:07;;;;;;;0.30;0.30;;;;;;;;;;5067746;28;20224;-84
2022/02/16 14:35:35;;;;;;;0.25;0.25;;;;;;;;;;5068341;28;20267;-84
2022/02/16 14:38:02;;;;;;;0.70;0.50;;;;;;;;;;5067138;28;20201;-83
2022/02/16 14:40:29;;;;;;;0.60;0.60;;;;;;;;;;5067014;28;20209;-84
2022/02/16 14:42:56;;;;;;;0.30;0.30;;;;;;;;;;5068722;28;20197;-84
2022/02/16 14:45:24;;;;;;;0.20;0.20;;;;;;;;;;5068303;28;20564;-84
2022/02/16 14:47:52;;;;;;;0.60;0.60;;;;;;;;;;5068662;28;20669;-85
2022/02/16 14:50:21;;;;;;;0.35;0.30;;;;;;;;;;5068942;28;20252;-84
2022/02/16 14:52:49;;;;;;;0.28;0.28;;;;;;;;;;5068485;28;20623;-84
2022/02/16 14:55:18;;;;;;;0.50;0.50;;;;;;;;;;5068206;28;20230;-84
2022/02/16 14:57:46;;;;;;;0.20;0.20;;;;;;;;;;5066498;28;20205;-84
2022/02/16 15:00:15;;;;;;;0.63;0.40;;;;;;;;;;5067634;28;20226;-85
2022/02/16 15:02:43;;;;;;;0.45;0.45;;;;;;;;;;5068336;28;20670;-83